sensor_id;sensor_type;location;lat;lon;timestamp;temperature;humidity
35381;DHT22;21486;51.916;8.378;2023-12-04T00:01:51;-1.00;99.90
35381;DHT22;21486;51.916;8.378;2023-12-04T00:04:16;-1.00;99.90
35381;DHT22;21486;51.916;8.378;2023-12-04T00:06:42;-1.00;99.90
35381;DHT22;21486;51.916;8.378;2023-12-04T00:09:07;-1.00;99.90
35381;DHT22;21486;51.916;8.378;2023-12-04T00:11:33;-1.10;99.90
35381;DHT22;21486;51.916;8.378;2023-12-04T00:13:59;-1.10;99.90
35381;DHT22;21486;51.916;8.378;2023-12-04T00:16:24;-1.10;99.90
35381;DHT22;21486;51.916;8.378;2023-12-04T00:18:50;-1.10;99.90
35381;DHT22;21486;51.916;8.378;2023-12-04T00:21:15;-1.00;99.90
35381;DHT22;21486;51.916;8.378;2023-12-04T00:23:41;-1.00;99.90
35381;DHT22;21486;51.916;8.378;2023-12-04T00:26:06;-1.00;99.90
35381;DHT22;21486;51.916;8.378;2023-12-04T00:28:32;-1.10;99.90
35381;DHT22;21486;51.916;8.378;2023-12-04T00:30:57;-1.10;99.90
35381;DHT22;21486;51.916;8.378;2023-12-04T00:33:23;-1.00;99.90
35381;DHT22;21486;51.916;8.378;2023-12-04T00:35:48;-1.10;99.90
35381;DHT22;21486;51.916;8.378;2023-12-04T00:38:14;-1.10;99.90
35381;DHT22;21486;51.916;8.378;2023-12-04T00:40:39;-1.10;99.90
35381;DHT22;21486;51.916;8.378;2023-12-04T00:43:05;-1.10;99.90
35381;DHT22;21486;51.916;8.378;2023-12-04T00:45:30;-1.00;99.90
35381;DHT22;21486;51.916;8.378;2023-12-04T00:47:56;-1.00;99.90
35381;DHT22;21486;51.916;8.378;2023-12-04T00:50:21;-1.00;99.90
35381;DHT22;21486;51.916;8.378;2023-12-04T00:52:47;-0.90;99.90
35381;DHT22;21486;51.916;8.378;2023-12-04T00:55:13;-0.90;99.90
35381;DHT22;21486;51.916;8.378;2023-12-04T00:57:39;-0.90;99.90
35381;DHT22;21486;51.916;8.378;2023-12-04T01:00:04;-0.90;99.90
35381;DHT22;21486;51.916;8.378;2023-12-04T01:02:30;-1.00;99.90
35381;DHT22;21486;51.916;8.378;2023-12-04T01:04:55;-0.90;99.90
35381;DHT22;21486;51.916;8.378;2023-12-04T01:07:21;-1.00;99.90
35381;DHT22;21486;51.916;8.378;2023-12-04T01:09:46;-1.00;99.90
35381;DHT22;21486;51.916;8.378;2023-12-04T01:12:12;-1.00;99.90
35381;DHT22;21486;51.916;8.378;2023-12-04T01:14:37;-1.00;99.90
35381;DHT22;21486;51.916;8.378;2023-12-04T01:17:05;-1.00;99.90
35381;DHT22;21486;51.916;8.378;2023-12-04T01:19:31;-1.00;99.90
35381;DHT22;21486;51.916;8.378;2023-12-04T01:21:57;-0.90;99.90
35381;DHT22;21486;51.916;8.378;2023-12-04T01:24:22;-1.00;99.90
35381;DHT22;21486;51.916;8.378;2023-12-04T01:26:48;-0.90;99.90
35381;DHT22;21486;51.916;8.378;2023-12-04T01:29:13;-1.00;99.90
35381;DHT22;21486;51.916;8.378;2023-12-04T01:33:04;-1.00;99.90
35381;DHT22;21486;51.916;8.378;2023-12-04T01:35:29;-1.00;99.90
35381;DHT22;21486;51.916;8.378;2023-12-04T01:37:55;-0.90;99.90
35381;DHT22;21486;51.916;8.378;2023-12-04T01:40:20;-0.90;99.90
35381;DHT22;21486;51.916;8.378;2023-12-04T01:42:46;-0.90;99.90
35381;DHT22;21486;51.916;8.378;2023-12-04T01:45:11;-0.90;99.90
35381;DHT22;21486;51.916;8.378;2023-12-04T01:47:37;-0.90;99.90
35381;DHT22;21486;51.916;8.378;2023-12-04T01:50:03;-0.90;99.90
35381;DHT22;21486;51.916;8.378;2023-12-04T01:52:29;-0.90;99.90
35381;DHT22;21486;51.916;8.378;2023-12-04T01:54:55;-0.90;99.90
35381;DHT22;21486;51.916;8.378;2023-12-04T01:57:21;-0.80;99.90
35381;DHT22;21486;51.916;8.378;2023-12-04T01:59:46;-0.70;99.90
35381;DHT22;21486;51.916;8.378;2023-12-04T02:02:13;-0.80;99.90
35381;DHT22;21486;51.916;8.378;2023-12-04T02:04:38;-0.70;99.90
35381;DHT22;21486;51.916;8.378;2023-12-04T02:07:04;-0.60;99.90
35381;DHT22;21486;51.916;8.378;2023-12-04T02:09:30;-0.60;99.90
35381;DHT22;21486;51.916;8.378;2023-12-04T02:11:56;-0.60;99.90
35381;DHT22;21486;51.916;8.378;2023-12-04T02:14:22;-0.60;99.90
35381;DHT22;21486;51.916;8.378;2023-12-04T02:16:48;-0.60;99.90
35381;DHT22;21486;51.916;8.378;2023-12-04T02:19:14;-0.50;99.90
35381;DHT22;21486;51.916;8.378;2023-12-04T02:21:40;-0.60;99.90
35381;DHT22;21486;51.916;8.378;2023-12-04T02:24:05;-0.50;99.90
35381;DHT22;21486;51.916;8.378;2023-12-04T02:26:34;-0.50;99.90
35381;DHT22;21486;51.916;8.378;2023-12-04T02:29:11;-0.50;99.90
35381;DHT22;21486;51.916;8.378;2023-12-04T02:31:40;-0.50;99.90
35381;DHT22;21486;51.916;8.378;2023-12-04T02:34:07;-0.40;99.90
35381;DHT22;21486;51.916;8.378;2023-12-04T02:36:35;-0.50;99.90
35381;DHT22;21486;51.916;8.378;2023-12-04T02:39:01;-0.50;99.90
35381;DHT22;21486;51.916;8.378;2023-12-04T02:41:27;-0.50;99.90
35381;DHT22;21486;51.916;8.378;2023-12-04T02:43:53;-0.40;99.90
35381;DHT22;21486;51.916;8.378;2023-12-04T02:46:18;-0.40;99.90
35381;DHT22;21486;51.916;8.378;2023-12-04T02:48:44;-0.40;99.90
35381;DHT22;21486;51.916;8.378;2023-12-04T02:51:10;-0.40;99.90
35381;DHT22;21486;51.916;8.378;2023-12-04T02:53:36;-0.40;99.90
35381;DHT22;21486;51.916;8.378;2023-12-04T02:56:01;-0.30;99.90
35381;DHT22;21486;51.916;8.378;2023-12-04T02:58:27;-0.40;99.90
35381;DHT22;21486;51.916;8.378;2023-12-04T03:00:52;-0.30;99.90
35381;DHT22;21486;51.916;8.378;2023-12-04T03:03:18;-0.20;99.90
35381;DHT22;21486;51.916;8.378;2023-12-04T03:05:43;-0.20;99.90
35381;DHT22;21486;51.916;8.378;2023-12-04T03:08:09;-0.10;99.90
35381;DHT22;21486;51.916;8.378;2023-12-04T03:10:34;-0.10;99.90
35381;DHT22;21486;51.916;8.378;2023-12-04T03:13:00;-0.10;99.90
35381;DHT22;21486;51.916;8.378;2023-12-04T03:15:25;0.00;99.90
35381;DHT22;21486;51.916;8.378;2023-12-04T03:17:54;-0.10;99.90
35381;DHT22;21486;51.916;8.378;2023-12-04T03:20:20;-0.10;99.90
35381;DHT22;21486;51.916;8.378;2023-12-04T03:22:45;-0.10;99.90
35381;DHT22;21486;51.916;8.378;2023-12-04T03:25:11;0.00;99.90
35381;DHT22;21486;51.916;8.378;2023-12-04T03:27:36;0.10;99.90
35381;DHT22;21486;51.916;8.378;2023-12-04T03:30:02;0.00;99.90
35381;DHT22;21486;51.916;8.378;2023-12-04T03:32:27;0.00;99.90
35381;DHT22;21486;51.916;8.378;2023-12-04T03:34:53;0.00;99.90
35381;DHT22;21486;51.916;8.378;2023-12-04T03:37:18;0.10;99.90
35381;DHT22;21486;51.916;8.378;2023-12-04T03:39:44;0.10;99.90
35381;DHT22;21486;51.916;8.378;2023-12-04T03:42:09;0.10;99.90
35381;DHT22;21486;51.916;8.378;2023-12-04T03:44:35;0.10;99.90
35381;DHT22;21486;51.916;8.378;2023-12-04T03:47:00;0.10;99.90
35381;DHT22;21486;51.916;8.378;2023-12-04T03:49:26;0.10;99.90
35381;DHT22;21486;51.916;8.378;2023-12-04T03:51:51;0.10;99.90
35381;DHT22;21486;51.916;8.378;2023-12-04T03:54:17;0.20;99.90
35381;DHT22;21486;51.916;8.378;2023-12-04T03:56:42;0.30;99.90
35381;DHT22;21486;51.916;8.378;2023-12-04T03:59:09;0.20;99.90
35381;DHT22;21486;51.916;8.378;2023-12-04T04:01:35;0.30;99.90
35381;DHT22;21486;51.916;8.378;2023-12-04T04:04:00;0.30;99.90
35381;DHT22;21486;51.916;8.378;2023-12-04T04:06:26;0.20;99.90
35381;DHT22;21486;51.916;8.378;2023-12-04T04:08:51;0.20;99.90
35381;DHT22;21486;51.916;8.378;2023-12-04T04:11:18;0.20;99.90
35381;DHT22;21486;51.916;8.378;2023-12-04T04:13:43;0.20;99.90
35381;DHT22;21486;51.916;8.378;2023-12-04T04:16:16;0.20;99.90
35381;DHT22;21486;51.916;8.378;2023-12-04T04:18:42;0.30;99.90
35381;DHT22;21486;51.916;8.378;2023-12-04T04:21:09;0.30;99.90
35381;DHT22;21486;51.916;8.378;2023-12-04T04:23:34;0.30;99.90
35381;DHT22;21486;51.916;8.378;2023-12-04T04:26:00;0.20;99.90
35381;DHT22;21486;51.916;8.378;2023-12-04T04:28:26;0.20;99.90
35381;DHT22;21486;51.916;8.378;2023-12-04T04:30:51;0.30;99.90
35381;DHT22;21486;51.916;8.378;2023-12-04T04:33:17;0.40;99.90
35381;DHT22;21486;51.916;8.378;2023-12-04T04:35:42;0.30;99.90
35381;DHT22;21486;51.916;8.378;2023-12-04T04:38:09;0.40;99.90
35381;DHT22;21486;51.916;8.378;2023-12-04T04:40:34;0.40;99.90
35381;DHT22;21486;51.916;8.378;2023-12-04T04:43:00;0.30;99.90
35381;DHT22;21486;51.916;8.378;2023-12-04T04:45:25;0.40;99.90
35381;DHT22;21486;51.916;8.378;2023-12-04T04:47:51;0.30;99.90
35381;DHT22;21486;51.916;8.378;2023-12-04T04:50:16;0.30;99.90
35381;DHT22;21486;51.916;8.378;2023-12-04T04:52:42;0.40;99.90
35381;DHT22;21486;51.916;8.378;2023-12-04T04:55:08;0.40;99.90
35381;DHT22;21486;51.916;8.378;2023-12-04T04:57:33;0.50;99.90
35381;DHT22;21486;51.916;8.378;2023-12-04T04:59:59;0.50;99.90
35381;DHT22;21486;51.916;8.378;2023-12-04T05:02:24;0.50;99.90
35381;DHT22;21486;51.916;8.378;2023-12-04T05:04:50;0.50;99.90
35381;DHT22;21486;51.916;8.378;2023-12-04T05:07:15;0.50;99.90
35381;DHT22;21486;51.916;8.378;2023-12-04T05:09:41;0.50;99.90
35381;DHT22;21486;51.916;8.378;2023-12-04T05:12:06;0.60;99.90
35381;DHT22;21486;51.916;8.378;2023-12-04T05:14:32;0.50;99.90
35381;DHT22;21486;51.916;8.378;2023-12-04T05:16:58;0.50;99.90
35381;DHT22;21486;51.916;8.378;2023-12-04T05:19:23;0.50;99.90
35381;DHT22;21486;51.916;8.378;2023-12-04T05:21:49;0.50;99.90
35381;DHT22;21486;51.916;8.378;2023-12-04T05:24:14;0.50;99.90
35381;DHT22;21486;51.916;8.378;2023-12-04T05:26:40;0.50;99.90
35381;DHT22;21486;51.916;8.378;2023-12-04T05:29:06;0.60;99.90
35381;DHT22;21486;51.916;8.378;2023-12-04T05:31:31;0.50;99.90
35381;DHT22;21486;51.916;8.378;2023-12-04T05:33:57;0.50;99.90
35381;DHT22;21486;51.916;8.378;2023-12-04T05:36:22;0.60;99.90
35381;DHT22;21486;51.916;8.378;2023-12-04T05:38:48;0.60;99.90
35381;DHT22;21486;51.916;8.378;2023-12-04T05:41:13;0.60;99.90
35381;DHT22;21486;51.916;8.378;2023-12-04T05:43:39;0.60;99.90
35381;DHT22;21486;51.916;8.378;2023-12-04T05:46:04;0.50;99.90
35381;DHT22;21486;51.916;8.378;2023-12-04T05:48:30;0.60;99.90
35381;DHT22;21486;51.916;8.378;2023-12-04T05:50:55;0.60;99.90
35381;DHT22;21486;51.916;8.378;2023-12-04T05:53:21;0.50;99.90
35381;DHT22;21486;51.916;8.378;2023-12-04T05:55:46;0.50;99.90
35381;DHT22;21486;51.916;8.378;2023-12-04T05:58:12;0.50;99.90
35381;DHT22;21486;51.916;8.378;2023-12-04T06:00:37;0.60;99.90
35381;DHT22;21486;51.916;8.378;2023-12-04T06:03:03;0.60;99.90
35381;DHT22;21486;51.916;8.378;2023-12-04T06:05:28;0.50;99.90
35381;DHT22;21486;51.916;8.378;2023-12-04T06:07:54;0.50;99.90
35381;DHT22;21486;51.916;8.378;2023-12-04T06:10:19;0.50;99.90
35381;DHT22;21486;51.916;8.378;2023-12-04T06:12:45;0.50;99.90
35381;DHT22;21486;51.916;8.378;2023-12-04T06:15:10;0.50;99.90
35381;DHT22;21486;51.916;8.378;2023-12-04T06:17:36;0.50;99.90
35381;DHT22;21486;51.916;8.378;2023-12-04T06:20:01;0.50;99.90
35381;DHT22;21486;51.916;8.378;2023-12-04T06:22:27;0.50;99.90
35381;DHT22;21486;51.916;8.378;2023-12-04T06:24:53;0.60;99.90
35381;DHT22;21486;51.916;8.378;2023-12-04T06:27:19;0.60;99.90
35381;DHT22;21486;51.916;8.378;2023-12-04T06:29:46;0.60;99.90
35381;DHT22;21486;51.916;8.378;2023-12-04T06:32:12;0.60;99.90
35381;DHT22;21486;51.916;8.378;2023-12-04T06:34:38;0.60;99.90
35381;DHT22;21486;51.916;8.378;2023-12-04T06:37:10;0.60;99.90
35381;DHT22;21486;51.916;8.378;2023-12-04T06:39:37;0.60;99.90
35381;DHT22;21486;51.916;8.378;2023-12-04T06:42:04;0.60;99.90
35381;DHT22;21486;51.916;8.378;2023-12-04T06:44:30;0.70;99.90
35381;DHT22;21486;51.916;8.378;2023-12-04T06:46:59;0.60;99.90
35381;DHT22;21486;51.916;8.378;2023-12-04T06:49:29;0.50;99.90
35381;DHT22;21486;51.916;8.378;2023-12-04T06:51:55;0.60;99.90
35381;DHT22;21486;51.916;8.378;2023-12-04T06:54:20;0.60;99.90
35381;DHT22;21486;51.916;8.378;2023-12-04T06:56:46;0.50;99.90
35381;DHT22;21486;51.916;8.378;2023-12-04T06:59:12;0.50;99.90
35381;DHT22;21486;51.916;8.378;2023-12-04T07:01:37;0.50;99.90
35381;DHT22;21486;51.916;8.378;2023-12-04T07:04:03;0.60;99.90
35381;DHT22;21486;51.916;8.378;2023-12-04T07:06:35;0.50;99.90
35381;DHT22;21486;51.916;8.378;2023-12-04T07:09:01;0.50;99.90
35381;DHT22;21486;51.916;8.378;2023-12-04T07:11:26;0.60;99.90
35381;DHT22;21486;51.916;8.378;2023-12-04T07:13:52;0.60;99.90
35381;DHT22;21486;51.916;8.378;2023-12-04T07:16:17;0.60;99.90
35381;DHT22;21486;51.916;8.378;2023-12-04T07:18:43;0.60;99.90
35381;DHT22;21486;51.916;8.378;2023-12-04T07:21:08;0.60;99.90
35381;DHT22;21486;51.916;8.378;2023-12-04T07:23:35;0.50;99.90
35381;DHT22;21486;51.916;8.378;2023-12-04T07:26:00;0.60;99.90
35381;DHT22;21486;51.916;8.378;2023-12-04T07:28:26;0.60;99.90
35381;DHT22;21486;51.916;8.378;2023-12-04T07:30:53;0.60;99.90
35381;DHT22;21486;51.916;8.378;2023-12-04T07:33:19;0.60;99.90
35381;DHT22;21486;51.916;8.378;2023-12-04T07:35:44;0.50;99.90
35381;DHT22;21486;51.916;8.378;2023-12-04T07:38:10;0.60;99.90
35381;DHT22;21486;51.916;8.378;2023-12-04T07:40:35;0.60;99.90
35381;DHT22;21486;51.916;8.378;2023-12-04T07:43:01;0.70;99.90
35381;DHT22;21486;51.916;8.378;2023-12-04T07:45:28;0.70;99.90
35381;DHT22;21486;51.916;8.378;2023-12-04T07:47:53;0.70;99.90
35381;DHT22;21486;51.916;8.378;2023-12-04T07:50:19;0.60;99.90
35381;DHT22;21486;51.916;8.378;2023-12-04T07:52:44;0.70;99.90
35381;DHT22;21486;51.916;8.378;2023-12-04T07:55:10;0.70;99.90
35381;DHT22;21486;51.916;8.378;2023-12-04T07:57:36;0.70;99.90
35381;DHT22;21486;51.916;8.378;2023-12-04T08:00:01;0.70;99.90
35381;DHT22;21486;51.916;8.378;2023-12-04T08:02:27;0.70;99.90
35381;DHT22;21486;51.916;8.378;2023-12-04T08:04:53;0.60;99.90
35381;DHT22;21486;51.916;8.378;2023-12-04T08:07:19;0.60;99.90
35381;DHT22;21486;51.916;8.378;2023-12-04T08:09:44;0.70;99.90
35381;DHT22;21486;51.916;8.378;2023-12-04T08:12:10;0.70;99.90
35381;DHT22;21486;51.916;8.378;2023-12-04T08:14:35;0.70;99.90
35381;DHT22;21486;51.916;8.378;2023-12-04T08:17:01;0.70;99.90
35381;DHT22;21486;51.916;8.378;2023-12-04T08:19:26;0.70;99.90
35381;DHT22;21486;51.916;8.378;2023-12-04T08:21:52;0.70;99.90
35381;DHT22;21486;51.916;8.378;2023-12-04T08:24:17;0.90;99.90
35381;DHT22;21486;51.916;8.378;2023-12-04T08:26:45;0.90;99.90
35381;DHT22;21486;51.916;8.378;2023-12-04T08:29:11;0.90;99.90
35381;DHT22;21486;51.916;8.378;2023-12-04T08:31:36;0.90;99.90
35381;DHT22;21486;51.916;8.378;2023-12-04T08:34:02;0.90;99.90
35381;DHT22;21486;51.916;8.378;2023-12-04T08:36:27;0.90;99.90
35381;DHT22;21486;51.916;8.378;2023-12-04T08:38:53;0.90;99.90
35381;DHT22;21486;51.916;8.378;2023-12-04T08:41:19;0.90;99.90
35381;DHT22;21486;51.916;8.378;2023-12-04T08:43:44;1.00;99.90
35381;DHT22;21486;51.916;8.378;2023-12-04T08:46:15;1.10;99.90
35381;DHT22;21486;51.916;8.378;2023-12-04T08:48:41;1.10;99.90
35381;DHT22;21486;51.916;8.378;2023-12-04T08:51:07;1.20;99.90
35381;DHT22;21486;51.916;8.378;2023-12-04T08:53:34;1.20;99.90
35381;DHT22;21486;51.916;8.378;2023-12-04T08:55:59;1.20;99.90
35381;DHT22;21486;51.916;8.378;2023-12-04T08:58:25;1.20;99.90
35381;DHT22;21486;51.916;8.378;2023-12-04T09:00:50;1.30;99.90
35381;DHT22;21486;51.916;8.378;2023-12-04T09:03:16;1.30;99.90
35381;DHT22;21486;51.916;8.378;2023-12-04T09:05:42;1.30;99.90
35381;DHT22;21486;51.916;8.378;2023-12-04T09:08:07;1.30;99.90
35381;DHT22;21486;51.916;8.378;2023-12-04T09:10:33;1.30;99.90
35381;DHT22;21486;51.916;8.378;2023-12-04T09:12:59;1.20;99.90
35381;DHT22;21486;51.916;8.378;2023-12-04T09:15:24;1.30;99.90
35381;DHT22;21486;51.916;8.378;2023-12-04T09:17:50;1.30;99.90
35381;DHT22;21486;51.916;8.378;2023-12-04T09:20:16;1.30;99.90
35381;DHT22;21486;51.916;8.378;2023-12-04T09:22:41;1.30;99.90
35381;DHT22;21486;51.916;8.378;2023-12-04T09:25:07;1.30;99.90
35381;DHT22;21486;51.916;8.378;2023-12-04T09:27:34;1.30;99.90
35381;DHT22;21486;51.916;8.378;2023-12-04T09:30:00;1.20;99.90
35381;DHT22;21486;51.916;8.378;2023-12-04T09:32:25;1.30;99.90
35381;DHT22;21486;51.916;8.378;2023-12-04T09:34:51;1.30;99.90
35381;DHT22;21486;51.916;8.378;2023-12-04T09:37:16;1.40;99.90
35381;DHT22;21486;51.916;8.378;2023-12-04T09:39:42;1.50;99.90
35381;DHT22;21486;51.916;8.378;2023-12-04T09:42:08;1.50;99.90
35381;DHT22;21486;51.916;8.378;2023-12-04T09:44:36;1.50;99.90
35381;DHT22;21486;51.916;8.378;2023-12-04T09:47:03;1.50;99.90
35381;DHT22;21486;51.916;8.378;2023-12-04T09:49:31;1.40;99.90
35381;DHT22;21486;51.916;8.378;2023-12-04T09:52:00;1.40;99.90
35381;DHT22;21486;51.916;8.378;2023-12-04T09:54:26;1.50;99.90
35381;DHT22;21486;51.916;8.378;2023-12-04T09:56:52;1.50;99.90
35381;DHT22;21486;51.916;8.378;2023-12-04T09:59:17;1.60;99.90
35381;DHT22;21486;51.916;8.378;2023-12-04T10:01:43;1.60;99.90
35381;DHT22;21486;51.916;8.378;2023-12-04T10:04:10;1.60;99.90
35381;DHT22;21486;51.916;8.378;2023-12-04T10:06:37;1.50;99.90
35381;DHT22;21486;51.916;8.378;2023-12-04T10:09:04;1.60;99.90
35381;DHT22;21486;51.916;8.378;2023-12-04T10:11:29;1.60;99.90
35381;DHT22;21486;51.916;8.378;2023-12-04T10:13:56;1.60;99.90
35381;DHT22;21486;51.916;8.378;2023-12-04T10:16:36;1.60;99.90
35381;DHT22;21486;51.916;8.378;2023-12-04T10:19:21;1.60;99.90
35381;DHT22;21486;51.916;8.378;2023-12-04T10:21:49;1.60;99.90
35381;DHT22;21486;51.916;8.378;2023-12-04T10:24:35;1.50;99.90
35381;DHT22;21486;51.916;8.378;2023-12-04T10:27:08;1.50;99.90
35381;DHT22;21486;51.916;8.378;2023-12-04T10:29:48;1.50;99.90
35381;DHT22;21486;51.916;8.378;2023-12-04T10:32:18;1.50;99.90
35381;DHT22;21486;51.916;8.378;2023-12-04T10:34:47;1.50;99.90
35381;DHT22;21486;51.916;8.378;2023-12-04T10:37:12;1.50;99.90
35381;DHT22;21486;51.916;8.378;2023-12-04T10:39:46;1.40;99.90
35381;DHT22;21486;51.916;8.378;2023-12-04T10:42:28;1.40;99.90
35381;DHT22;21486;51.916;8.378;2023-12-04T10:44:56;1.40;99.90
35381;DHT22;21486;51.916;8.378;2023-12-04T10:47:22;1.50;99.90
35381;DHT22;21486;51.916;8.378;2023-12-04T10:49:50;1.40;99.90
35381;DHT22;21486;51.916;8.378;2023-12-04T10:52:16;1.40;99.90
35381;DHT22;21486;51.916;8.378;2023-12-04T10:54:48;1.40;99.90
35381;DHT22;21486;51.916;8.378;2023-12-04T10:57:20;1.50;99.90
35381;DHT22;21486;51.916;8.378;2023-12-04T10:59:47;1.50;99.90
35381;DHT22;21486;51.916;8.378;2023-12-04T11:02:19;1.50;99.90
35381;DHT22;21486;51.916;8.378;2023-12-04T11:04:49;1.30;99.90
35381;DHT22;21486;51.916;8.378;2023-12-04T11:07:16;1.30;99.90
35381;DHT22;21486;51.916;8.378;2023-12-04T11:09:43;1.20;99.90
35381;DHT22;21486;51.916;8.378;2023-12-04T11:12:11;1.30;99.90
35381;DHT22;21486;51.916;8.378;2023-12-04T11:14:42;1.30;99.90
35381;DHT22;21486;51.916;8.378;2023-12-04T11:17:13;1.30;99.90
35381;DHT22;21486;51.916;8.378;2023-12-04T11:19:51;1.20;99.90
35381;DHT22;21486;51.916;8.378;2023-12-04T11:22:17;1.20;99.90
35381;DHT22;21486;51.916;8.378;2023-12-04T11:24:47;1.30;99.90
35381;DHT22;21486;51.916;8.378;2023-12-04T11:27:15;1.30;99.90
35381;DHT22;21486;51.916;8.378;2023-12-04T11:29:42;1.20;99.90
35381;DHT22;21486;51.916;8.378;2023-12-04T11:32:16;1.20;99.90
35381;DHT22;21486;51.916;8.378;2023-12-04T11:34:50;1.30;99.90
35381;DHT22;21486;51.916;8.378;2023-12-04T11:37:17;1.30;99.90
35381;DHT22;21486;51.916;8.378;2023-12-04T11:39:46;1.20;99.90
35381;DHT22;21486;51.916;8.378;2023-12-04T11:42:13;1.20;99.90
35381;DHT22;21486;51.916;8.378;2023-12-04T11:44:41;1.20;99.90
35381;DHT22;21486;51.916;8.378;2023-12-04T11:47:06;1.20;99.90
35381;DHT22;21486;51.916;8.378;2023-12-04T11:49:33;1.30;99.90
35381;DHT22;21486;51.916;8.378;2023-12-04T11:52:00;1.40;99.90
35381;DHT22;21486;51.916;8.378;2023-12-04T11:54:28;1.40;99.90
35381;DHT22;21486;51.916;8.378;2023-12-04T11:59:37;1.50;99.90
35381;DHT22;21486;51.916;8.378;2023-12-04T12:02:07;1.60;99.90
35381;DHT22;21486;51.916;8.378;2023-12-04T12:04:33;1.70;99.90
35381;DHT22;21486;51.916;8.378;2023-12-04T12:06:59;1.80;99.90
35381;DHT22;21486;51.916;8.378;2023-12-04T12:09:31;1.70;99.90
35381;DHT22;21486;51.916;8.378;2023-12-04T12:12:02;1.70;99.90
35381;DHT22;21486;51.916;8.378;2023-12-04T12:14:29;1.70;99.90
35381;DHT22;21486;51.916;8.378;2023-12-04T12:16:55;1.60;99.90
35381;DHT22;21486;51.916;8.378;2023-12-04T12:19:21;1.50;99.90
35381;DHT22;21486;51.916;8.378;2023-12-04T12:21:48;1.60;99.90
35381;DHT22;21486;51.916;8.378;2023-12-04T12:24:14;1.70;99.90
35381;DHT22;21486;51.916;8.378;2023-12-04T12:26:40;1.60;99.90
35381;DHT22;21486;51.916;8.378;2023-12-04T12:29:08;1.70;99.90
35381;DHT22;21486;51.916;8.378;2023-12-04T12:31:34;1.60;99.90
35381;DHT22;21486;51.916;8.378;2023-12-04T12:34:00;1.60;99.90
35381;DHT22;21486;51.916;8.378;2023-12-04T12:36:25;1.60;99.90
35381;DHT22;21486;51.916;8.378;2023-12-04T12:38:51;1.70;99.90
35381;DHT22;21486;51.916;8.378;2023-12-04T12:41:17;1.60;99.90
35381;DHT22;21486;51.916;8.378;2023-12-04T12:43:43;1.60;99.90
35381;DHT22;21486;51.916;8.378;2023-12-04T12:46:10;1.60;99.90
35381;DHT22;21486;51.916;8.378;2023-12-04T12:48:35;1.60;99.90
35381;DHT22;21486;51.916;8.378;2023-12-04T12:51:02;1.60;99.90
35381;DHT22;21486;51.916;8.378;2023-12-04T12:53:28;1.50;99.90
35381;DHT22;21486;51.916;8.378;2023-12-04T12:55:54;1.50;99.90
35381;DHT22;21486;51.916;8.378;2023-12-04T12:58:20;1.50;99.90
35381;DHT22;21486;51.916;8.378;2023-12-04T13:00:46;1.60;99.90
35381;DHT22;21486;51.916;8.378;2023-12-04T13:03:19;1.60;99.90
35381;DHT22;21486;51.916;8.378;2023-12-04T13:05:45;1.70;99.90
35381;DHT22;21486;51.916;8.378;2023-12-04T13:08:11;1.70;99.90
35381;DHT22;21486;51.916;8.378;2023-12-04T13:10:37;1.70;99.90
35381;DHT22;21486;51.916;8.378;2023-12-04T13:13:02;1.70;99.90
35381;DHT22;21486;51.916;8.378;2023-12-04T13:15:28;1.70;99.90
35381;DHT22;21486;51.916;8.378;2023-12-04T13:17:54;1.70;99.90
35381;DHT22;21486;51.916;8.378;2023-12-04T13:20:20;1.70;99.90
35381;DHT22;21486;51.916;8.378;2023-12-04T13:22:45;1.70;99.90
35381;DHT22;21486;51.916;8.378;2023-12-04T13:25:11;1.80;99.90
35381;DHT22;21486;51.916;8.378;2023-12-04T13:27:37;1.80;99.90
35381;DHT22;21486;51.916;8.378;2023-12-04T13:30:07;1.80;99.90
35381;DHT22;21486;51.916;8.378;2023-12-04T13:32:34;1.80;99.90
35381;DHT22;21486;51.916;8.378;2023-12-04T13:35:01;1.80;99.90
35381;DHT22;21486;51.916;8.378;2023-12-04T13:37:26;1.80;99.90
35381;DHT22;21486;51.916;8.378;2023-12-04T13:39:53;1.80;99.90
35381;DHT22;21486;51.916;8.378;2023-12-04T13:42:24;1.80;99.90
35381;DHT22;21486;51.916;8.378;2023-12-04T13:45:08;1.60;99.90
35381;DHT22;21486;51.916;8.378;2023-12-04T13:47:35;1.60;99.90
35381;DHT22;21486;51.916;8.378;2023-12-04T13:50:01;1.60;99.90
35381;DHT22;21486;51.916;8.378;2023-12-04T13:52:27;1.60;99.90
35381;DHT22;21486;51.916;8.378;2023-12-04T13:54:58;1.70;99.90
35381;DHT22;21486;51.916;8.378;2023-12-04T13:57:23;1.70;99.90
35381;DHT22;21486;51.916;8.378;2023-12-04T13:59:59;1.80;99.90
35381;DHT22;21486;51.916;8.378;2023-12-04T14:02:25;1.80;99.90
35381;DHT22;21486;51.916;8.378;2023-12-04T14:04:51;1.70;99.90
35381;DHT22;21486;51.916;8.378;2023-12-04T14:07:17;1.70;99.90
35381;DHT22;21486;51.916;8.378;2023-12-04T14:09:43;1.80;99.90
35381;DHT22;21486;51.916;8.378;2023-12-04T14:12:10;1.80;99.90
35381;DHT22;21486;51.916;8.378;2023-12-04T14:14:36;1.80;99.90
35381;DHT22;21486;51.916;8.378;2023-12-04T14:17:03;1.70;99.90
35381;DHT22;21486;51.916;8.378;2023-12-04T14:19:30;1.70;99.90
35381;DHT22;21486;51.916;8.378;2023-12-04T14:21:55;1.70;99.90
35381;DHT22;21486;51.916;8.378;2023-12-04T14:24:21;1.60;99.90
35381;DHT22;21486;51.916;8.378;2023-12-04T14:26:51;1.70;99.90
35381;DHT22;21486;51.916;8.378;2023-12-04T14:29:18;1.60;99.90
35381;DHT22;21486;51.916;8.378;2023-12-04T14:31:44;1.70;99.90
35381;DHT22;21486;51.916;8.378;2023-12-04T14:34:10;1.60;99.90
35381;DHT22;21486;51.916;8.378;2023-12-04T14:36:35;1.60;99.90
35381;DHT22;21486;51.916;8.378;2023-12-04T14:39:02;1.60;99.90
35381;DHT22;21486;51.916;8.378;2023-12-04T14:41:28;1.50;99.90
35381;DHT22;21486;51.916;8.378;2023-12-04T14:43:54;1.50;99.90
35381;DHT22;21486;51.916;8.378;2023-12-04T14:46:20;1.50;99.90
35381;DHT22;21486;51.916;8.378;2023-12-04T14:48:46;1.50;99.90
35381;DHT22;21486;51.916;8.378;2023-12-04T14:51:11;1.50;99.90
35381;DHT22;21486;51.916;8.378;2023-12-04T14:53:40;1.40;99.90
35381;DHT22;21486;51.916;8.378;2023-12-04T14:56:11;1.60;99.90
35381;DHT22;21486;51.916;8.378;2023-12-04T14:58:56;1.50;99.90
35381;DHT22;21486;51.916;8.378;2023-12-04T15:01:31;1.50;99.90
35381;DHT22;21486;51.916;8.378;2023-12-04T15:04:08;1.50;99.90
35381;DHT22;21486;51.916;8.378;2023-12-04T15:06:54;1.40;99.90
35381;DHT22;21486;51.916;8.378;2023-12-04T15:09:58;1.40;99.90
35381;DHT22;21486;51.916;8.378;2023-12-04T15:12:49;1.30;99.90
35381;DHT22;21486;51.916;8.378;2023-12-04T15:15:35;1.10;99.90
35381;DHT22;21486;51.916;8.378;2023-12-04T15:18:20;1.00;99.90
35381;DHT22;21486;51.916;8.378;2023-12-04T15:21:03;0.90;99.90
35381;DHT22;21486;51.916;8.378;2023-12-04T15:23:30;0.70;99.90
35381;DHT22;21486;51.916;8.378;2023-12-04T15:25:55;0.80;99.90
35381;DHT22;21486;51.916;8.378;2023-12-04T15:28:21;0.70;99.90
35381;DHT22;21486;51.916;8.378;2023-12-04T15:30:48;0.70;99.90
35381;DHT22;21486;51.916;8.378;2023-12-04T15:33:13;0.60;99.90
35381;DHT22;21486;51.916;8.378;2023-12-04T15:35:39;0.50;99.90
35381;DHT22;21486;51.916;8.378;2023-12-04T15:38:05;0.50;99.90
35381;DHT22;21486;51.916;8.378;2023-12-04T15:40:30;0.50;99.90
35381;DHT22;21486;51.916;8.378;2023-12-04T15:42:57;0.40;99.90
35381;DHT22;21486;51.916;8.378;2023-12-04T15:45:22;0.40;99.90